createdAt,value
2023-04-08T00:02:10.491Z,21.38
2023-04-08T00:04:38.107Z,21.02
2023-04-08T00:07:06.137Z,21.30
2023-04-08T00:09:33.410Z,20.75
2023-04-08T00:12:01.344Z,20.42
2023-04-08T00:14:29.135Z,21.20
2023-04-08T00:16:56.813Z,21.70
2023-04-08T00:19:25.315Z,23.55
2023-04-08T00:21:52.651Z,21.25
2023-04-08T00:24:20.247Z,21.90
2023-04-08T00:26:47.494Z,22.27
2023-04-08T00:29:14.842Z,21.65
2023-04-08T00:31:42.182Z,20.85
2023-04-08T00:34:09.675Z,21.48
2023-04-08T00:36:37.055Z,22.20
2023-04-08T00:39:06.839Z,21.88
2023-04-08T00:41:36.098Z,22.33
2023-04-08T00:44:03.578Z,23.60
2023-04-08T00:46:35.611Z,21.63
2023-04-08T00:49:03.166Z,19.98
2023-04-08T00:51:33.878Z,17.48
2023-04-08T00:54:01.198Z,18.67
2023-04-08T00:56:29.021Z,17.40
2023-04-08T00:58:56.358Z,18.38
2023-04-08T01:02:06.835Z,16.92
2023-04-08T01:05:02.668Z,16.15
2023-04-08T01:07:36.756Z,15.23
2023-04-08T01:10:24.240Z,14.77
2023-04-08T01:12:56.771Z,14.60
2023-04-08T01:15:28.018Z,15.13
2023-04-08T01:17:56.848Z,17.08
2023-04-08T01:20:26.360Z,18.25
2023-04-08T01:22:59.361Z,18.67
2023-04-08T01:25:34.413Z,20.85
2023-04-08T01:28:05.650Z,21.02
2023-04-08T01:30:34.536Z,20.60
2023-04-08T01:33:02.885Z,21.35
2023-04-08T01:35:32.234Z,22.30
2023-04-08T01:38:01.384Z,21.90
2023-04-08T01:40:28.998Z,21.55
2023-04-08T01:42:58.954Z,22.02
2023-04-08T01:45:27.661Z,20.80
2023-04-08T01:47:56.482Z,20.67
2023-04-08T01:50:25.159Z,19.90
2023-04-08T01:52:54.542Z,19.52
2023-04-08T01:55:22.873Z,19.60
2023-04-08T01:57:53.538Z,19.67
2023-04-08T02:00:25.891Z,20.90
2023-04-08T02:02:54.745Z,19.10
2023-04-08T02:05:22.186Z,20.10
2023-04-08T02:07:50.004Z,19.98
2023-04-08T02:10:17.419Z,19.38
2023-04-08T02:12:45.841Z,19.63
2023-04-08T02:15:14.354Z,20.08
2023-04-08T02:17:52.763Z,20.35
2023-04-08T02:20:31.109Z,19.35
2023-04-08T02:23:07.602Z,18.85
2023-04-08T02:28:06.059Z,18.23
2023-04-08T02:30:35.680Z,18.45
2023-04-08T02:33:07.914Z,18.48
2023-04-08T02:35:36.829Z,18.83
2023-04-08T02:38:04.104Z,18.42
2023-04-08T02:40:35.404Z,18.73
2023-04-08T02:43:04.139Z,19.30
2023-04-08T02:45:38.650Z,18.13
2023-04-08T02:48:06.467Z,18.77
2023-04-08T02:50:34.057Z,17.67
2023-04-08T02:53:01.486Z,18.55
2023-04-08T02:55:30.934Z,18.52
2023-04-08T02:57:58.303Z,19.63
2023-04-08T03:00:25.614Z,18.20
2023-04-08T03:02:53.140Z,18.85
2023-04-08T03:05:21.687Z,19.15
2023-04-08T03:07:48.884Z,18.00
2023-04-08T03:10:16.280Z,18.65
2023-04-08T03:12:43.570Z,18.92
2023-04-08T03:15:10.903Z,18.33
2023-04-08T03:17:38.379Z,17.83
2023-04-08T03:20:06.896Z,17.77
2023-04-08T03:22:34.499Z,19.50
2023-04-08T03:25:01.821Z,18.90
2023-04-08T03:27:29.208Z,18.45
2023-04-08T03:29:57.838Z,17.35
2023-04-08T03:32:25.582Z,18.20
2023-04-08T03:34:53.468Z,18.92
2023-04-08T03:37:20.798Z,19.02
2023-04-08T03:39:48.016Z,18.80
2023-04-08T03:42:15.484Z,18.45
2023-04-08T03:44:42.680Z,18.77
2023-04-08T03:47:10.143Z,18.40
2023-04-08T03:49:37.354Z,18.42
2023-04-08T03:52:04.863Z,19.33
2023-04-08T03:54:32.091Z,19.00
2023-04-08T03:56:59.348Z,19.13
2023-04-08T03:59:26.731Z,18.67
2023-04-08T04:01:54.046Z,18.58
2023-04-08T04:04:21.845Z,18.60
2023-04-08T04:06:49.126Z,19.55
2023-04-08T04:09:17.091Z,19.63
2023-04-08T04:11:44.361Z,19.80
2023-04-08T04:14:11.696Z,20.60
2023-04-08T04:16:38.946Z,20.67
2023-04-08T04:19:06.285Z,19.98
2023-04-08T04:21:33.479Z,20.23
2023-04-08T04:24:00.707Z,20.85
2023-04-08T04:26:27.948Z,21.33
2023-04-08T04:28:55.219Z,20.52
2023-04-08T04:31:23.968Z,20.90
2023-04-08T04:33:51.259Z,20.48
2023-04-08T04:36:19.549Z,21.17
2023-04-08T04:38:48.345Z,21.30
2023-04-08T04:41:18.068Z,20.55
2023-04-08T04:43:45.675Z,20.95
2023-04-08T04:46:13.063Z,21.55
2023-04-08T04:48:40.636Z,21.25
2023-04-08T04:51:07.914Z,20.15
2023-04-08T04:53:35.403Z,20.50
2023-04-08T04:56:02.693Z,21.17
2023-04-08T04:58:30.647Z,20.10
2023-04-08T05:00:58.213Z,21.35
2023-04-08T05:03:25.469Z,21.23
2023-04-08T05:05:54.155Z,21.08
2023-04-08T05:08:21.785Z,20.80
2023-04-08T05:10:50.616Z,21.75
2023-04-08T05:13:21.129Z,21.13
2023-04-08T05:15:48.483Z,21.13
2023-04-08T05:18:16.105Z,20.70
2023-04-08T05:20:43.486Z,22.25
2023-04-08T05:23:10.913Z,21.98
2023-04-08T05:25:38.199Z,21.90
2023-04-08T05:28:05.633Z,22.02
2023-04-08T05:30:32.897Z,22.17
2023-04-08T05:33:00.930Z,22.27
2023-04-08T05:35:28.988Z,20.58
2023-04-08T05:37:56.285Z,21.75
2023-04-08T05:40:23.736Z,21.00
2023-04-08T05:42:51.069Z,22.02
2023-04-08T05:45:18.303Z,21.42
2023-04-08T05:47:45.647Z,21.10
2023-04-08T05:50:12.918Z,22.10
2023-04-08T05:52:44.772Z,21.65
2023-04-08T05:55:12.919Z,20.48
2023-04-08T05:57:41.102Z,21.10
2023-04-08T06:00:10.056Z,21.52
2023-04-08T06:02:38.515Z,21.75
2023-04-08T06:05:06.548Z,21.85
2023-04-08T06:07:34.961Z,19.98
2023-04-08T06:10:03.175Z,20.63
2023-04-08T06:12:30.610Z,22.15
2023-04-08T06:14:57.878Z,21.63
2023-04-08T06:17:25.260Z,21.30
2023-04-08T06:19:52.579Z,21.85
2023-04-08T06:22:19.819Z,20.55
2023-04-08T06:24:48.620Z,21.38
2023-04-08T06:27:16.396Z,20.70
2023-04-08T06:29:43.682Z,22.15
2023-04-08T06:32:11.369Z,20.70
2023-04-08T06:34:38.848Z,21.23
2023-04-08T06:37:06.490Z,21.52
2023-04-08T06:39:34.174Z,21.60
2023-04-08T06:42:01.662Z,22.67
2023-04-08T06:44:47.724Z,23.55
2023-04-08T06:47:16.490Z,21.65
2023-04-08T06:49:43.808Z,22.27
2023-04-08T06:52:13.091Z,22.45
2023-04-08T06:54:41.806Z,22.35
2023-04-08T06:57:09.146Z,22.95
2023-04-08T06:59:36.468Z,21.95
2023-04-08T07:02:04.187Z,23.05
2023-04-08T07:04:31.522Z,22.80
2023-04-08T07:06:58.842Z,22.98
2023-04-08T07:09:26.221Z,22.50
2023-04-08T07:11:53.581Z,22.58
2023-04-08T07:14:20.860Z,25.00
2023-04-08T07:16:48.147Z,24.08
2023-04-08T07:19:15.887Z,25.33
2023-04-08T07:21:43.386Z,24.85
2023-04-08T07:24:11.030Z,24.60
2023-04-08T07:26:38.765Z,24.30
2023-04-08T07:29:06.085Z,23.30
2023-04-08T07:31:33.351Z,23.65
2023-04-08T07:34:00.672Z,25.58
2023-04-08T07:36:28.122Z,25.02
2023-04-08T07:38:55.449Z,24.00
2023-04-08T07:41:22.674Z,24.25
2023-04-08T07:43:49.950Z,22.83
2023-04-08T07:46:17.286Z,24.17
2023-04-08T07:48:44.615Z,22.40
2023-04-08T07:51:11.994Z,22.13
2023-04-08T07:53:40.369Z,23.45
2023-04-08T07:56:16.189Z,21.77
2023-04-08T07:58:43.848Z,21.83
2023-04-08T08:01:23.062Z,21.33
2023-04-08T08:03:52.649Z,22.02
2023-04-08T08:06:21.125Z,21.45
2023-04-08T08:08:48.523Z,11.77
2023-04-08T08:11:15.822Z,21.05
2023-04-08T08:13:43.167Z,19.58
2023-04-08T08:16:11.700Z,20.00
2023-04-08T08:18:40.833Z,21.00
2023-04-08T08:21:08.812Z,23.05
2023-04-08T08:23:37.385Z,17.73
2023-04-08T08:26:07.747Z,20.73
2023-04-08T08:28:35.268Z,21.85
2023-04-08T08:31:03.585Z,19.52
2023-04-08T08:33:30.836Z,21.50
2023-04-08T08:35:58.561Z,21.50
2023-04-08T08:38:26.080Z,22.08
2023-04-08T08:40:58.039Z,19.88
2023-04-08T08:43:26.055Z,18.98
2023-04-08T08:45:54.009Z,20.98
2023-04-08T08:48:21.588Z,21.38
2023-04-08T08:50:48.841Z,21.38
2023-04-08T08:53:16.116Z,22.25
2023-04-08T08:58:13.666Z,21.92
2023-04-08T09:00:42.436Z,21.58
2023-04-08T09:03:16.167Z,22.10
2023-04-08T09:05:51.162Z,23.23
2023-04-08T09:08:32.039Z,21.95
2023-04-08T09:11:15.811Z,22.10
2023-04-08T09:13:45.563Z,21.90
2023-04-08T09:16:16.585Z,24.42
2023-04-08T09:18:45.987Z,26.67
2023-04-08T09:21:16.815Z,22.55
2023-04-08T09:23:45.450Z,21.45
2023-04-08T09:26:19.356Z,22.75
2023-04-08T09:29:18.419Z,22.73
2023-04-08T09:31:59.654Z,23.35
2023-04-08T09:34:30.791Z,22.42
2023-04-08T09:36:58.343Z,23.45
2023-04-08T09:39:25.728Z,23.73
2023-04-08T09:41:55.820Z,23.42
2023-04-08T09:44:29.135Z,21.45
2023-04-08T09:47:08.531Z,23.15
2023-04-08T09:49:45.894Z,23.00
2023-04-08T09:52:24.924Z,23.50
2023-04-08T09:55:09.598Z,23.45
2023-04-08T09:57:39.515Z,24.15
2023-04-08T10:00:18.111Z,25.08
2023-04-08T10:02:54.531Z,23.52
2023-04-08T10:05:24.472Z,23.10
2023-04-08T10:07:52.570Z,24.75
2023-04-08T10:10:20.917Z,24.63
2023-04-08T10:12:49.189Z,23.48
2023-04-08T10:15:30.989Z,24.10
2023-04-08T10:18:06.973Z,23.10
2023-04-08T10:20:34.421Z,22.60
2023-04-08T10:23:09.148Z,23.02
2023-04-08T10:25:41.484Z,22.50
2023-04-08T10:28:11.892Z,23.20
2023-04-08T10:30:49.063Z,23.15
2023-04-08T10:33:19.124Z,21.75
2023-04-08T10:35:53.323Z,21.05
2023-04-08T10:38:21.565Z,22.60
2023-04-08T10:40:49.918Z,22.05
2023-04-08T10:43:17.357Z,22.48
2023-04-08T10:45:48.609Z,21.38
2023-04-08T10:48:29.357Z,22.88
2023-04-08T10:50:59.483Z,19.77
2023-04-08T10:53:44.838Z,21.85
2023-04-08T10:56:15.408Z,19.67
2023-04-08T10:58:50.755Z,20.20
2023-04-08T11:01:18.954Z,20.70
2023-04-08T11:03:46.568Z,21.10
2023-04-08T11:06:14.065Z,20.17
2023-04-08T11:08:41.577Z,19.67
2023-04-08T11:11:08.962Z,19.55
2023-04-08T11:13:39.466Z,20.75
2023-04-08T11:16:17.753Z,19.50
2023-04-08T11:18:46.189Z,19.05
2023-04-08T11:21:13.520Z,20.42
2023-04-08T11:23:42.730Z,21.25
2023-04-08T11:26:11.256Z,24.42
2023-04-08T11:28:39.059Z,20.92
2023-04-08T11:31:08.663Z,21.00
2023-04-08T11:33:36.348Z,19.42
2023-04-08T11:36:04.763Z,18.70
2023-04-08T11:38:32.276Z,20.92
2023-04-08T11:41:00.375Z,18.77
2023-04-08T11:43:28.673Z,18.70
2023-04-08T11:45:56.056Z,18.80
2023-04-08T11:48:23.798Z,19.65
2023-04-08T11:51:04.618Z,17.83
2023-04-08T11:53:32.000Z,18.70
2023-04-08T11:56:19.057Z,18.30
2023-04-08T11:58:46.668Z,17.10
2023-04-08T12:01:14.399Z,16.58
2023-04-08T12:03:58.949Z,18.95
2023-04-08T12:06:27.639Z,17.02
2023-04-08T12:08:56.466Z,17.17
2023-04-08T12:11:24.504Z,16.48
2023-04-08T12:13:53.013Z,16.52
2023-04-08T12:16:20.835Z,17.23
2023-04-08T12:18:48.718Z,17.17
2023-04-08T12:21:15.992Z,17.05
2023-04-08T12:23:43.195Z,17.05
2023-04-08T12:26:10.602Z,16.55
2023-04-08T12:28:38.255Z,17.10
2023-04-08T12:31:05.862Z,18.08
2023-04-08T12:33:33.141Z,17.35
2023-04-08T12:36:00.655Z,17.75
2023-04-08T12:38:28.125Z,14.98
2023-04-08T12:40:55.972Z,16.20
2023-04-08T12:43:23.739Z,15.50
2023-04-08T12:45:51.937Z,15.02
2023-04-08T12:48:19.558Z,14.52
2023-04-08T12:50:46.895Z,14.57
2023-04-08T12:53:14.163Z,15.55
2023-04-08T12:55:43.153Z,15.15
2023-04-08T12:58:11.772Z,16.02
2023-04-08T13:00:40.157Z,15.30
2023-04-08T13:03:07.562Z,15.65
2023-04-08T13:05:43.145Z,14.68
2023-04-08T13:08:14.424Z,16.08
2023-04-08T13:10:42.472Z,14.75
2023-04-08T13:13:09.986Z,14.93
2023-04-08T13:15:37.927Z,15.13
2023-04-08T13:18:05.334Z,15.32
2023-04-08T13:20:33.476Z,15.10
2023-04-08T13:23:01.087Z,15.77
2023-04-08T13:25:28.585Z,14.95
2023-04-08T13:27:56.082Z,14.90
2023-04-08T13:30:23.366Z,15.77
2023-04-08T13:32:50.804Z,14.70
2023-04-08T13:35:18.216Z,14.50
2023-04-08T13:37:45.582Z,15.18
2023-04-08T13:40:13.253Z,13.75
2023-04-08T13:42:41.545Z,12.82
2023-04-08T13:45:09.337Z,12.25
2023-04-08T13:47:38.008Z,12.65
2023-04-08T13:50:07.399Z,13.05
2023-04-08T13:52:35.412Z,12.18
2023-04-08T13:55:02.699Z,12.60
2023-04-08T13:57:30.634Z,13.65
2023-04-08T13:59:58.042Z,14.40
2023-04-08T14:02:25.632Z,13.95
2023-04-08T14:04:53.417Z,12.95
2023-04-08T14:07:20.832Z,12.70
2023-04-08T14:09:48.100Z,12.80
2023-04-08T14:12:15.440Z,13.20
2023-04-08T14:14:42.647Z,12.48
2023-04-08T14:17:10.056Z,11.60
2023-04-08T14:19:37.427Z,12.18
2023-04-08T14:22:04.731Z,11.68
2023-04-08T14:24:31.927Z,11.90
2023-04-08T14:26:59.148Z,13.65
2023-04-08T14:29:27.672Z,10.68
2023-04-08T14:31:55.054Z,10.55
2023-04-08T14:34:22.236Z,10.98
2023-04-08T14:36:49.530Z,10.65
2023-04-08T14:39:16.728Z,10.88
2023-04-08T14:41:44.024Z,12.50
2023-04-08T14:44:11.222Z,12.57
2023-04-08T14:46:39.624Z,12.02
2023-04-08T14:49:07.144Z,12.55
2023-04-08T14:51:34.485Z,12.77
2023-04-08T14:54:02.063Z,13.18
2023-04-08T14:56:29.323Z,11.95
2023-04-08T14:58:56.742Z,12.05
2023-04-08T15:01:24.017Z,11.25
2023-04-08T15:03:51.450Z,12.15
2023-04-08T15:06:20.729Z,12.68
2023-04-08T15:08:47.960Z,11.50
2023-04-08T15:11:15.504Z,12.23
2023-04-08T15:13:42.722Z,9.27
2023-04-08T15:16:10.130Z,6.72
2023-04-08T15:18:37.495Z,6.35
2023-04-08T15:21:05.010Z,5.63
2023-04-08T15:23:32.262Z,5.20
2023-04-08T15:25:59.512Z,4.97
2023-04-08T15:28:27.317Z,4.85
2023-04-08T15:30:54.569Z,4.50
2023-04-08T15:33:22.012Z,4.70
2023-04-08T15:35:49.471Z,4.50
2023-04-08T15:38:17.413Z,4.65
2023-04-08T15:40:46.741Z,4.32
2023-04-08T15:43:15.231Z,4.38
2023-04-08T15:45:44.211Z,4.32
2023-04-08T15:48:14.240Z,4.13
2023-04-08T15:50:42.097Z,4.60
2023-04-08T15:53:09.499Z,4.35
2023-04-08T15:55:40.895Z,4.28
2023-04-08T15:58:08.362Z,5.07
2023-04-08T16:00:35.679Z,6.60
2023-04-08T16:03:05.370Z,8.30
2023-04-08T16:05:35.801Z,8.63
2023-04-08T16:08:04.463Z,9.02
2023-04-08T16:10:31.802Z,8.80
2023-04-08T16:12:59.416Z,10.07
2023-04-08T16:15:26.723Z,10.00
2023-04-08T16:17:54.371Z,10.98
2023-04-08T16:20:21.656Z,11.18
2023-04-08T16:22:50.091Z,11.77
2023-04-08T16:25:18.027Z,11.10
2023-04-08T16:27:45.303Z,12.35
2023-04-08T16:30:12.666Z,11.13
2023-04-08T16:32:40.363Z,12.05
2023-04-08T16:35:08.072Z,12.32
2023-04-08T16:37:35.564Z,12.20
2023-04-08T16:40:03.704Z,12.13
2023-04-08T16:42:32.815Z,11.70
2023-04-08T16:45:00.309Z,11.73
2023-04-08T16:47:27.599Z,11.32
2023-04-08T16:49:55.082Z,11.15
2023-04-08T16:52:22.337Z,10.98
2023-04-08T16:54:49.609Z,10.00
2023-04-08T16:57:16.863Z,9.05
2023-04-08T16:59:44.096Z,8.93
2023-04-08T17:02:11.908Z,8.25
2023-04-08T17:04:40.579Z,8.18
2023-04-08T17:07:08.467Z,9.00
2023-04-08T17:09:36.290Z,10.48
2023-04-08T17:12:03.536Z,10.48
2023-04-08T17:14:31.185Z,10.48
2023-04-08T17:16:58.642Z,10.35
2023-04-08T17:19:26.048Z,10.82
2023-04-08T17:21:53.350Z,10.30
2023-04-08T17:24:20.628Z,10.77
2023-04-08T17:26:48.109Z,10.98
2023-04-08T17:29:15.306Z,10.65
2023-04-08T17:31:44.163Z,10.32
2023-04-08T17:34:11.550Z,10.93
2023-04-08T17:36:39.667Z,11.25
2023-04-08T17:39:07.105Z,10.02
2023-04-08T17:41:40.424Z,11.05
2023-04-08T17:44:08.670Z,11.38
2023-04-08T17:46:36.261Z,11.75
2023-04-08T17:49:03.509Z,11.60
2023-04-08T17:51:31.956Z,11.20
2023-04-08T17:53:59.403Z,10.63
2023-04-08T17:56:27.863Z,11.23
2023-04-08T17:58:55.473Z,11.45
2023-04-08T18:01:23.019Z,12.18
2023-04-08T18:03:51.706Z,12.02
2023-04-08T18:06:19.421Z,12.93
2023-04-08T18:08:46.687Z,12.63
2023-04-08T18:11:14.052Z,12.02
2023-04-08T18:13:41.328Z,11.93
2023-04-08T18:16:20.398Z,11.65
2023-04-08T18:18:48.461Z,12.18
2023-04-08T18:21:18.200Z,12.43
2023-04-08T18:23:49.304Z,12.55
2023-04-08T18:26:17.205Z,12.07
2023-04-08T18:28:44.572Z,12.00
2023-04-08T18:31:11.939Z,13.00
2023-04-08T18:33:39.371Z,13.50
2023-04-08T18:36:12.474Z,14.30
2023-04-08T18:38:40.849Z,13.23
2023-04-08T18:41:08.356Z,13.27
2023-04-08T18:43:35.775Z,13.20
2023-04-08T18:46:03.400Z,12.63
2023-04-08T18:48:30.784Z,14.00
2023-04-08T18:50:58.582Z,12.70
2023-04-08T18:53:25.962Z,12.27
2023-04-08T18:55:53.440Z,13.25
2023-04-08T18:58:20.800Z,13.82
2023-04-08T19:00:48.102Z,13.70
2023-04-08T19:03:15.617Z,13.20
2023-04-08T19:05:42.952Z,15.55
2023-04-08T19:08:10.409Z,14.30
2023-04-08T19:10:37.648Z,14.10
2023-04-08T19:13:05.552Z,13.82
2023-04-08T19:15:33.026Z,13.88
2023-04-08T19:18:00.683Z,13.02
2023-04-08T19:20:28.596Z,14.45
2023-04-08T19:22:55.815Z,13.60
2023-04-08T19:25:23.143Z,14.48
2023-04-08T19:27:51.156Z,13.98
2023-04-08T19:30:18.517Z,14.07
2023-04-08T19:32:46.868Z,14.05
2023-04-08T19:35:14.222Z,13.80
2023-04-08T19:37:41.865Z,12.63
2023-04-08T19:40:10.014Z,14.80
2023-04-08T19:42:39.549Z,15.40
2023-04-08T19:45:07.897Z,16.00
2023-04-08T19:47:35.846Z,15.80
2023-04-08T19:50:03.358Z,14.90
2023-04-08T19:52:31.750Z,15.45
2023-04-08T19:54:59.072Z,14.40
2023-04-08T19:57:26.791Z,15.13
2023-04-08T19:59:54.848Z,15.75
2023-04-08T20:02:24.503Z,15.07
2023-04-08T20:04:52.012Z,15.90
2023-04-08T20:07:19.484Z,15.20
2023-04-08T20:09:46.828Z,14.95
2023-04-08T20:12:14.310Z,14.60
2023-04-08T20:14:43.200Z,14.35
2023-04-08T20:17:11.478Z,14.57
2023-04-08T20:19:39.216Z,14.68
2023-04-08T20:22:07.223Z,13.73
2023-04-08T20:24:34.702Z,13.95
2023-04-08T20:27:02.199Z,13.52
2023-04-08T20:29:29.984Z,14.38
2023-04-08T20:31:57.714Z,13.80
2023-04-08T20:34:25.281Z,15.18
2023-04-08T20:36:52.926Z,14.48
2023-04-08T20:39:20.484Z,14.80
2023-04-08T20:41:47.749Z,13.55
2023-04-08T20:44:15.858Z,14.63
2023-04-08T20:46:43.260Z,13.45
2023-04-08T20:49:10.768Z,13.63
2023-04-08T20:51:38.443Z,13.52
2023-04-08T20:54:06.327Z,13.40
2023-04-08T20:56:33.935Z,13.40
2023-04-08T20:59:01.331Z,13.07
2023-04-08T21:01:29.399Z,11.77
2023-04-08T21:03:57.136Z,12.75
2023-04-08T21:06:24.628Z,12.65
2023-04-08T21:08:52.389Z,11.20
2023-04-08T21:11:19.872Z,11.50
2023-04-08T21:13:49.088Z,11.00
2023-04-08T21:16:16.907Z,11.15
2023-04-08T21:18:44.855Z,11.05
2023-04-08T21:21:12.246Z,12.18
2023-04-08T21:23:39.927Z,11.73
2023-04-08T21:26:12.387Z,11.77
2023-04-08T21:28:40.897Z,12.35
2023-04-08T21:31:09.658Z,12.35
2023-04-08T21:33:37.233Z,12.23
2023-04-08T21:36:06.426Z,11.77
2023-04-08T21:38:35.142Z,12.25
2023-04-08T21:41:02.872Z,11.75
2023-04-08T21:43:30.158Z,11.38
2023-04-08T21:45:57.727Z,11.90
2023-04-08T21:48:25.447Z,12.65
2023-04-08T21:50:53.667Z,13.10
2023-04-08T21:53:22.628Z,13.75
2023-04-08T21:55:49.984Z,15.15
2023-04-08T21:58:17.901Z,15.82
2023-04-08T22:00:45.218Z,15.82
2023-04-08T22:03:12.623Z,15.82
2023-04-08T22:05:40.013Z,15.38
2023-04-08T22:08:07.265Z,14.32
2023-04-08T22:10:34.515Z,15.20
2023-04-08T22:13:01.766Z,14.40
2023-04-08T22:15:29.057Z,13.38
2023-04-08T22:17:56.274Z,13.35
2023-04-08T22:20:23.551Z,13.05
2023-04-08T22:22:51.138Z,12.35
2023-04-08T22:25:18.926Z,12.07
2023-04-08T22:27:46.096Z,12.05
2023-04-08T22:30:13.929Z,12.02
2023-04-08T22:32:44.386Z,13.15
2023-04-08T22:35:12.035Z,13.15
2023-04-08T22:37:39.445Z,13.90
2023-04-08T22:40:07.707Z,14.05
2023-04-08T22:42:34.961Z,14.05
2023-04-08T22:45:02.206Z,13.82
2023-04-08T22:47:29.505Z,13.57
2023-04-08T22:49:57.304Z,14.60
2023-04-08T22:52:24.698Z,14.48
2023-04-08T22:54:51.867Z,14.25
2023-04-08T22:57:19.115Z,13.52
2023-04-08T22:59:46.383Z,13.68
2023-04-08T23:02:13.733Z,13.93
2023-04-08T23:04:41.071Z,13.38
2023-04-08T23:07:08.320Z,13.07
2023-04-08T23:09:35.581Z,13.63
2023-04-08T23:12:02.938Z,13.10
2023-04-08T23:14:30.275Z,13.02
2023-04-08T23:16:57.451Z,12.90
2023-04-08T23:19:24.669Z,12.43
2023-04-08T23:21:51.924Z,13.05
2023-04-08T23:24:19.304Z,12.38
2023-04-08T23:26:46.788Z,12.77
2023-04-08T23:29:14.397Z,12.13
2023-04-08T23:31:41.823Z,12.63
2023-04-08T23:34:09.076Z,12.27
2023-04-08T23:36:37.288Z,11.95
2023-04-08T23:39:04.630Z,12.05
2023-04-08T23:41:32.024Z,12.55
2023-04-08T23:43:59.253Z,11.57
2023-04-08T23:46:26.584Z,12.20
2023-04-08T23:48:54.126Z,12.20
2023-04-08T23:51:21.747Z,11.77
2023-04-08T23:53:49.080Z,12.07
2023-04-08T23:56:16.281Z,12.25
2023-04-08T23:58:43.501Z,12.55
